Stations météo

réclame
Mon MeteoGroup
Mannheim City Airport, Allemagne (10730): Température de l'air & dewpoint: 17.09.2018 05:00:00 - 23.09.2018 05:00:00 (CEST)Mannheim City Airport, Allemagne (10730): Vitesse du vent: 17.09.2018 05:00:00 - 23.09.2018 05:00:00 (CEST)Mannheim City Airport, Allemagne (10730): Direction du vent: 17.09.2018 05:00:00 - 23.09.2018 05:00:00 (CEST)Mannheim City Airport, Allemagne (10730): visibility: 17.09.2018 05:00:00 - 23.09.2018 05:00:00 (CEST)
Date & Time tt [°C] td [°C] ff [km/h] ff [knt] dd vv [km]
23.09.2018 05:00:00 - - - - - -
23.09.2018 04:00:00 - - - - - -
23.09.2018 03:00:00 - - - - - -
23.09.2018 02:00:00 - - - - - -
23.09.2018 01:00:00 - - - - - -
23.09.2018 00:00:00 - - - - - -
22.09.2018 23:00:00 - - - - - -
22.09.2018 22:00:00 - - - - - -
22.09.2018 21:00:00 15,0 8,0 5 3 S 10
22.09.2018 20:00:00 17,0 6,0 9 5 SW 10
22.09.2018 19:00:00 18,0 5,0 9 5 SW 10
22.09.2018 18:00:00 18,0 5,0 9 5 SSW 10
22.09.2018 17:00:00 19,0 4,0 15 8 SW 10
22.09.2018 16:00:00 19,0 5,0 18 10 SW 10
22.09.2018 15:00:00 19,0 6,0 18 10 SSW 10
22.09.2018 14:00:00 18,0 6,0 15 8 SW 10
22.09.2018 13:00:00 17,0 7,0 16 9 S 10
22.09.2018 12:00:00 15,0 8,0 13 7 SSW 10
22.09.2018 11:00:00 15,0 8,0 9 5 SSW 10
22.09.2018 10:00:00 13,0 8,0 11 6 SSE 10
22.09.2018 09:00:00 12,0 7,0 9 5 S 10
22.09.2018 08:00:00 11,0 8,0 8 4 S 10
22.09.2018 07:00:00 - - - - - -
22.09.2018 06:00:00 - - - - - -
22.09.2018 05:00:00 - - - - - -
22.09.2018 04:00:00 - - - - - -
22.09.2018 03:00:00 - - - - - -
22.09.2018 02:00:00 - - - - - -
22.09.2018 01:00:00 - - - - - -
22.09.2018 00:00:00 - - - - - -
21.09.2018 23:00:00 14,0 10,0 11 6 SSW 10
21.09.2018 22:00:00 14,0 11,0 13 7 SSW 10
21.09.2018 21:00:00 15,0 11,0 15 8 SSW 10
21.09.2018 20:00:00 16,0 11,0 11 6 SW 10
21.09.2018 19:00:00 16,0 11,0 18 10 W 10
21.09.2018 18:00:00 15,0 10,0 9 5 W 10
21.09.2018 17:00:00 16,0 12,0 28 15 WNW 10
21.09.2018 16:00:00 23,0 14,0 16 9 SW 10
21.09.2018 15:00:00 24,0 12,0 18 10 SSW 10
21.09.2018 14:00:00 25,0 13,0 18 10 SSW 10
21.09.2018 13:00:00 25,0 13,0 22 12 SW 10
21.09.2018 12:00:00 25,0 14,0 24 13 SW 10
21.09.2018 11:00:00 23,0 15,0 11 6 S 10
21.09.2018 10:00:00 21,0 14,0 13 7 S 10
21.09.2018 09:00:00 20,0 13,0 15 8 S 10
21.09.2018 08:00:00 19,0 12,0 11 6 S 10
21.09.2018 07:00:00 19,0 12,0 11 6 SSE 10
21.09.2018 06:00:00 19,0 13,0 9 5 S 10
21.09.2018 05:00:00 - - - - - -
21.09.2018 04:00:00 - - - - - -
21.09.2018 03:00:00 - - - - - -
21.09.2018 02:00:00 - - - - - -
21.09.2018 01:00:00 - - - - - -
21.09.2018 00:00:00 - - - - - -
20.09.2018 23:00:00 - - - - - -
20.09.2018 22:00:00 - - - - - -
20.09.2018 21:00:00 - - - - - -
20.09.2018 20:00:00 25,0 14,0 2 1 - 10
20.09.2018 19:00:00 28,0 13,0 8 4 SSW 10
20.09.2018 18:00:00 29,0 13,0 11 6 SW 10
20.09.2018 17:00:00 29,0 12,0 9 5 S 10
20.09.2018 16:00:00 29,0 13,0 15 8 SSW 10
20.09.2018 15:00:00 28,0 13,0 15 8 SSW 10
20.09.2018 14:00:00 27,0 13,0 11 6 SSW 10
20.09.2018 13:00:00 27,0 14,0 11 6 S 10
20.09.2018 12:00:00 25,0 14,0 9 5 SSW 10
20.09.2018 11:00:00 23,0 15,0 5 3 - 10
20.09.2018 10:00:00 21,0 15,0 8 4 S 10
20.09.2018 09:00:00 - - - - - -
20.09.2018 08:00:00 18,0 14,0 8 4 SSE 10
20.09.2018 07:00:00 18,0 14,0 5 3 SE 10
20.09.2018 06:00:00 18,0 13,0 5 3 SE 10
20.09.2018 05:00:00 - - - - - -
20.09.2018 04:00:00 - - - - - -
20.09.2018 03:00:00 - - - - - -
20.09.2018 02:00:00 - - - - - -
20.09.2018 01:00:00 - - - - - -
20.09.2018 00:00:00 - - - - - -
19.09.2018 23:00:00 - - - - - -
19.09.2018 22:00:00 - - - - - -
19.09.2018 21:00:00 25,0 13,0 5 3 SSE 10
19.09.2018 20:00:00 27,0 13,0 5 3 S 10
19.09.2018 19:00:00 29,0 12,0 11 6 S 10
19.09.2018 18:00:00 30,0 13,0 13 7 SSW 10
19.09.2018 17:00:00 30,0 13,0 13 7 S 10
19.09.2018 16:00:00 29,0 13,0 15 8 S 10
19.09.2018 15:00:00 29,0 12,0 13 7 S 10
19.09.2018 14:00:00 28,0 14,0 11 6 S 10
19.09.2018 13:00:00 27,0 14,0 9 5 SSW 10
19.09.2018 12:00:00 25,0 15,0 11 6 SSE 10
19.09.2018 11:00:00 23,0 15,0 9 5 S 10
19.09.2018 10:00:00 21,0 14,0 9 5 SSE 10
19.09.2018 09:00:00 19,0 14,0 8 4 SE 10
19.09.2018 08:00:00 18,0 14,0 8 4 ESE 10
19.09.2018 07:00:00 17,0 13,0 5 3 - 10
19.09.2018 06:00:00 18,0 13,0 5 3 SE 10
19.09.2018 05:00:00 - - - - - -
19.09.2018 04:00:00 - - - - - -
19.09.2018 03:00:00 - - - - - -
19.09.2018 02:00:00 - - - - - -
19.09.2018 01:00:00 - - - - - -
19.09.2018 00:00:00 - - - - - -
18.09.2018 23:00:00 - - - - - -
18.09.2018 22:00:00 - - - - - -
18.09.2018 21:00:00 26,0 15,0 8 4 SW 10
18.09.2018 20:00:00 28,0 15,0 8 4 SSW 10
18.09.2018 19:00:00 29,0 15,0 11 6 SSW 10
18.09.2018 18:00:00 30,0 15,0 13 7 SSW 10
18.09.2018 17:00:00 30,0 15,0 13 7 SSW 10
18.09.2018 16:00:00 30,0 15,0 13 7 S 10
18.09.2018 15:00:00 30,0 13,0 11 6 SSW 10
18.09.2018 14:00:00 28,0 14,0 13 7 S 10
18.09.2018 13:00:00 27,0 13,0 13 7 S 10
18.09.2018 12:00:00 25,0 12,0 13 7 S 10
18.09.2018 11:00:00 23,0 12,0 13 7 SSE 10
18.09.2018 10:00:00 21,0 11,0 8 4 S 10
18.09.2018 09:00:00 19,0 10,0 4 2 - 10
18.09.2018 08:00:00 15,0 10,0 5 3 - 10
18.09.2018 07:00:00 12,0 9,0 2 1 - 10
18.09.2018 06:00:00 12,0 10,0 0 0 N 10
18.09.2018 05:00:00 - - - - - -
18.09.2018 04:00:00 - - - - - -
18.09.2018 03:00:00 - - - - - -
18.09.2018 02:00:00 - - - - - -
18.09.2018 01:00:00 - - - - - -
18.09.2018 00:00:00 - - - - - -
17.09.2018 23:00:00 - - - - - -
17.09.2018 22:00:00 18,0 9,0 0 0 N 10
17.09.2018 21:00:00 19,0 9,0 0 0 N 10
17.09.2018 20:00:00 23,0 8,0 0 0 N 10
17.09.2018 19:00:00 27,0 7,0 5 3 - 10
17.09.2018 18:00:00 28,0 5,0 9 5 S 10
17.09.2018 17:00:00 28,0 7,0 8 4 - 10
17.09.2018 16:00:00 27,0 8,0 9 5 SSW 10
17.09.2018 15:00:00 27,0 7,0 9 5 SSE 10
17.09.2018 14:00:00 26,0 11,0 11 6 S 10
17.09.2018 13:00:00 24,0 12,0 8 4 - 10
17.09.2018 12:00:00 23,0 12,0 11 6 S 10
17.09.2018 11:00:00 20,0 12,0 9 5 SSE 10
17.09.2018 10:00:00 18,0 12,0 9 5 SSE 10
17.09.2018 09:00:00 15,0 10,0 5 3 - 10
17.09.2018 08:00:00 12,0 9,0 2 1 - 10
17.09.2018 07:00:00 12,0 9,0 4 2 SSE 10
17.09.2018 06:00:00 13,0 10,0 5 3 SSE 10
17.09.2018 05:00:00 - - - - - -

tt = Température de l'air
td = dewpoint
ff = Vitesse du vent
dd = Direction du vent
vv = visibility

stations d'obs. à proximité